Time;durP1;ratioP1;P1;durP2;ratioP2;P2;SDS_P1;SDS_P2;PMS_P1;PMS_P2;Temp;Humidity;BMP_temperature;BMP_pressure;BME280_temperature;BME280_humidity;BME280_pressure;Samples;Min_cycle;Max_cycle;Signal;HPM_P1;HPM_P2
2021/01/05 00:00:21;;;;;;;18.27;7.90;;;;;;;3.00;89.50;101856.36;1705404;83;20962;-90
2021/01/05 00:02:47;;;;;;;19.67;7.95;;;;;;;3.05;88.59;101839.31;1689437;84;21212;-89
2021/01/05 00:05:15;;;;;;;24.10;8.78;;;;;;;3.10;88.26;101840.13;1689512;84;21203;-90
2021/01/05 00:07:42;;;;;;;23.55;9.35;;;;;;;2.94;88.60;101837.92;1689462;83;21223;-90
2021/01/05 00:10:09;;;;;;;24.18;9.03;;;;;;;3.04;88.43;101836.34;1665903;84;21223;-90
2021/01/05 00:12:36;;;;;;;25.05;9.20;;;;;;;2.87;89.17;101842.29;1689321;84;21236;-90
2021/01/05 00:15:04;;;;;;;22.52;8.88;;;;;;;2.95;88.78;101844.07;1689444;84;21144;-90
2021/01/05 00:17:30;;;;;;;22.62;8.25;;;;;;;2.87;89.13;101848.12;1689667;84;21142;-88
2021/01/05 00:19:55;;;;;;;23.10;7.87;;;;;;;2.88;89.07;101841.78;1689526;84;21375;-90
2021/01/05 00:22:21;;;;;;;24.65;9.40;;;;;;;3.01;88.75;101840.69;1689524;84;21632;-89
2021/01/05 00:24:47;;;;;;;22.40;8.48;;;;;;;2.80;89.39;101844.53;1689529;84;21053;-90
2021/01/05 00:27:14;;;;;;;23.35;8.68;;;;;;;2.56;90.24;101845.48;1689687;84;21045;-89
2021/01/05 00:29:40;;;;;;;22.80;7.92;;;;;;;2.33;90.45;101846.30;1689625;84;21423;-91
2021/01/05 00:32:19;;;;;;;24.10;8.63;;;;;;;2.18;90.82;101837.41;1689689;84;21178;-90
2021/01/05 00:34:46;;;;;;;21.95;7.80;;;;;;;2.27;90.42;101842.51;1665877;86;21202;-90
2021/01/05 00:37:15;;;;;;;21.75;7.80;;;;;;;2.23;89.43;101849.66;1665170;86;21130;-90
2021/01/05 00:39:42;;;;;;;21.42;7.70;;;;;;;2.11;89.71;101846.56;1662662;86;21167;-90
2021/01/05 00:42:09;;;;;;;21.80;7.80;;;;;;;2.21;89.44;101844.53;1662667;86;21208;-91
2021/01/05 00:44:35;;;;;;;19.35;7.83;;;;;;;2.30;88.76;101824.05;1662655;86;21231;-90
2021/01/05 00:47:01;;;;;;;19.35;7.10;;;;;;;2.33;88.54;101846.30;1662511;86;21619;-89
2021/01/05 00:49:27;;;;;;;21.30;8.63;;;;;;;2.12;88.30;101830.95;1662681;86;21687;-90
2021/01/05 00:51:53;;;;;;;23.87;7.95;;;;;;;2.20;88.43;101824.75;1662560;86;21075;-91
2021/01/05 00:54:19;;;;;;;23.52;9.20;;;;;;;2.02;89.54;101826.33;1662737;86;20972;-90
2021/01/05 00:57:03;;;;;;;19.77;7.70;;;;;;;2.04;89.53;101825.16;1662624;86;21283;-90
2021/01/05 00:59:29;;;;;;;21.57;8.33;;;;;;;2.17;88.91;101829.91;1658432;86;21388;-90
2021/01/05 01:01:57;;;;;;;20.05;7.92;;;;;;;2.15;88.88;101824.47;1653150;86;20923;-91
2021/01/05 01:04:23;;;;;;;23.02;8.53;;;;;;;2.20;88.78;101821.58;1653427;86;21511;-90
2021/01/05 01:06:49;;;;;;;19.82;8.63;;;;;;;2.14;88.86;101817.47;1653291;86;21215;-91
2021/01/05 01:09:15;;;;;;;29.35;10.38;;;;;;;2.10;89.43;101821.48;1653257;86;21205;-90
2021/01/05 01:12:18;;;;;;;23.12;7.97;;;;;;;2.07;89.93;101812.53;1652820;86;21145;-90
2021/01/05 01:14:47;;;;;;;29.60;9.20;;;;;;;2.07;89.89;101817.84;1653018;86;21157;-90
2021/01/05 01:17:13;;;;;;;31.65;9.45;;;;;;;2.11;89.81;101817.31;1653680;86;21665;-90
2021/01/05 01:19:39;;;;;;;28.55;10.35;;;;;;;1.97;90.38;101812.24;1653997;86;21154;-90
2021/01/05 01:22:05;;;;;;;31.97;12.55;;;;;;;2.11;90.55;101825.80;1653293;86;21199;-90
2021/01/05 01:24:31;;;;;;;29.67;11.05;;;;;;;1.91;91.18;101826.23;1653166;86;20970;-90
2021/01/05 01:26:57;;;;;;;32.00;12.18;;;;;;;1.76;91.58;101825.26;1654934;86;21176;-90
2021/01/05 01:29:26;;;;;;;30.72;10.55;;;;;;;1.61;92.12;101813.18;1653906;86;21228;-90
2021/01/05 01:31:54;;;;;;;27.87;9.50;;;;;;;1.67;91.64;101818.31;1685944;83;21157;-90
2021/01/05 01:34:24;;;;;;;27.90;9.70;;;;;;;1.74;91.46;101825.45;1697616;83;21760;-91
2021/01/05 01:37:09;;;;;;;27.50;10.82;;;;;;;1.72;91.22;101818.14;1697478;83;21607;-90
2021/01/05 01:39:36;;;;;;;24.55;9.68;;;;;;;1.74;90.73;101810.83;1697493;84;21062;-91
2021/01/05 01:42:06;;;;;;;28.62;10.80;;;;;;;1.77;89.46;101811.81;1697510;84;21169;-90
2021/01/05 01:44:40;;;;;;;33.88;11.10;;;;;;;1.83;89.95;101811.63;1697653;84;21561;-90
2021/01/05 01:47:37;;;;;;;33.33;12.45;;;;;;;1.59;90.25;101805.91;1697593;84;21177;-90
2021/01/05 01:50:08;;;;;;;33.80;11.70;;;;;;;1.63;90.31;101800.56;1697565;84;21679;-90
2021/01/05 01:52:56;;;;;;;32.23;11.85;;;;;;;1.46;90.40;101799.78;1697522;84;21575;-90
2021/01/05 01:55:30;;;;;;;42.13;14.47;;;;;;;1.40;90.38;101796.98;1697518;84;21189;-89
2021/01/05 01:58:17;;;;;;;41.33;14.45;;;;;;;1.65;89.65;101798.58;1619230;87;21588;-90
2021/01/05 02:01:12;;;;;;;37.05;12.78;;;;;;;1.58;89.82;101806.88;1635692;87;21677;-90
2021/01/05 02:03:53;;;;;;;31.87;11.40;;;;;;;1.67;89.74;101799.21;1632243;86;21191;-91
2021/01/05 02:06:45;;;;;;;29.10;11.25;;;;;;;1.64;88.97;101814.17;1616114;87;21639;-90
2021/01/05 02:09:48;;;;;;;35.63;11.90;;;;;;;1.64;88.99;101798.73;1635412;87;21563;-90
2021/01/05 02:12:45;;;;;;;37.33;12.60;;;;;;;1.43;89.68;101806.75;1635672;87;21173;-90
2021/01/05 02:15:34;;;;;;;36.65;14.25;;;;;;;1.57;88.79;101806.56;1635516;87;21254;-90
2021/01/05 02:18:40;;;;;;;36.03;13.58;;;;;;;1.50;89.11;101792.29;1613619;87;21178;-91
2021/01/05 02:21:22;;;;;;;41.37;14.35;;;;;;;1.30;90.22;101804.63;1635636;87;21251;-90
2021/01/05 02:24:03;;;;;;;42.40;13.80;;;;;;;1.49;89.38;101785.33;1630833;86;21616;-90
2021/01/05 02:26:57;;;;;;;43.25;15.03;;;;;;;1.35;89.26;101781.54;1635625;87;21259;-90
2021/01/05 02:29:31;;;;;;;41.68;14.83;;;;;;;1.50;89.42;101774.55;1633192;87;21434;-91
2021/01/05 02:32:17;;;;;;;46.08;14.60;;;;;;;1.43;89.76;101774.06;1605166;88;21183;-90
2021/01/05 02:35:21;;;;;;;40.38;13.50;;;;;;;1.41;89.90;101762.27;1608171;88;21199;-90
2021/01/05 02:38:12;;;;;;;34.00;13.70;;;;;;;1.07;91.37;101763.34;1599966;88;21120;-91
2021/01/05 02:41:20;;;;;;;35.30;13.72;;;;;;;1.25;90.27;101780.41;1589009;90;21164;-89
2021/01/05 02:44:10;;;;;;;48.30;15.83;;;;;;;1.30;90.19;101774.09;1592427;90;22003;-90
2021/01/05 02:47:13;;;;;;;47.15;16.07;;;;;;;1.29;90.07;101786.20;1595194;89;21029;-90
2021/01/05 02:49:50;;;;;;;49.67;16.37;;;;;;;1.30;89.61;101775.93;1595570;89;21202;-90
2021/01/05 02:52:31;;;;;;;55.58;16.40;;;;;;;1.19;89.89;101775.77;1545888;92;21197;-90
2021/01/05 02:55:45;;;;;;;42.50;15.30;;;;;;;1.17;90.41;101773.77;1571149;89;21194;-91
2021/01/05 02:58:49;;;;;;;44.30;15.65;;;;;;;1.20;90.33;101765.98;1602331;89;21203;-90
2021/01/05 03:01:54;;;;;;;48.35;15.98;;;;;;;1.03;91.53;101760.71;1600451;89;21612;-90
2021/01/05 03:04:20;;;;;;;52.17;18.02;;;;;;;0.78;92.51;101757.23;1601902;89;21205;-91
2021/01/05 03:06:55;;;;;;;53.87;18.55;;;;;;;0.76;92.43;101762.37;1602159;89;21094;-90
2021/01/05 03:09:56;;;;;;;66.35;17.70;;;;;;;0.83;92.10;101758.90;1553633;92;21657;-91
2021/01/05 03:12:46;;;;;;;60.38;17.27;;;;;;;0.76;92.04;101761.05;1553734;92;21276;-90
2021/01/05 03:15:43;;;;;;;54.38;18.87;;;;;;;0.55;92.19;101769.50;1553552;91;21234;-89
2021/01/05 03:18:17;;;;;;;61.60;20.32;;;;;;;0.64;91.71;101759.22;1553633;91;21238;-90
2021/01/05 03:20:49;;;;;;;70.05;21.30;;;;;;;0.77;91.32;101754.77;1549697;92;21275;-90
2021/01/05 03:23:16;;;;;;;64.85;20.72;;;;;;;0.81;91.32;101754.25;1569313;90;21288;-90
2021/01/05 03:25:46;;;;;;;71.45;21.25;;;;;;;0.72;91.75;101760.55;1562873;90;21173;-90
2021/01/05 03:28:17;;;;;;;66.67;21.17;;;;;;;0.62;92.66;101756.75;1562626;90;21196;-91
2021/01/05 03:30:48;;;;;;;65.50;20.32;;;;;;;0.67;92.83;101753.58;1562866;91;21192;-91
2021/01/05 03:33:15;;;;;;;60.85;20.60;;;;;;;0.84;92.16;101745.95;1535810;92;21191;-90
2021/01/05 03:35:41;;;;;;;68.07;20.82;;;;;;;0.80;91.94;101743.31;1538934;92;21200;-90
2021/01/05 03:38:07;;;;;;;66.60;20.90;;;;;;;0.67;91.38;101744.30;1538734;92;21387;-90
2021/01/05 03:40:33;;;;;;;67.65;20.77;;;;;;;0.77;91.02;101742.83;1538769;92;21134;-90
2021/01/05 03:42:59;;;;;;;63.63;21.93;;;;;;;0.79;90.98;101727.55;1532570;93;21022;-91
2021/01/05 03:45:29;;;;;;;65.95;21.97;;;;;;;0.74;90.77;101729.89;1530972;92;21120;-90
2021/01/05 03:47:57;;;;;;;65.70;22.93;;;;;;;0.73;91.29;101740.98;1530953;92;21263;-91
2021/01/05 03:50:24;;;;;;;62.95;22.85;;;;;;;0.73;91.15;101741.48;1530851;93;21725;-90
2021/01/05 03:52:50;;;;;;;61.35;21.35;;;;;;;0.80;91.22;101742.49;1530982;92;21215;-90
2021/01/05 03:55:18;;;;;;;73.67;23.62;;;;;;;0.87;91.35;101740.31;1530865;92;21708;-90
2021/01/05 03:57:44;;;;;;;73.00;25.43;;;;;;;0.56;92.07;101743.30;1531050;93;21231;-90
2021/01/05 04:00:27;;;;;;;80.45;26.77;;;;;;;0.63;92.01;101749.11;1531003;93;21256;-91
2021/01/05 04:02:55;;;;;;;76.60;24.32;;;;;;;0.47;92.17;101733.69;1530514;92;21247;-91
2021/01/05 04:05:23;;;;;;;77.92;26.10;;;;;;;0.42;92.21;101732.38;1555602;87;21228;-91
2021/01/05 04:07:49;;;;;;;84.70;23.87;;;;;;;0.33;92.65;101736.52;1648697;87;21175;-90
2021/01/05 04:10:16;;;;;;;77.22;22.42;;;;;;;0.30;92.55;101735.02;1648687;87;21217;-90
2021/01/05 04:12:44;;;;;;;86.05;26.12;;;;;;;0.43;91.57;101753.08;1648634;87;21155;-90
2021/01/05 04:15:18;;;;;;;76.28;25.37;;;;;;;0.34;92.53;101737.66;1626223;87;21985;-91
2021/01/05 04:17:44;;;;;;;78.20;27.00;;;;;;;0.20;92.46;101728.52;1624001;87;21712;-90
2021/01/05 04:20:12;;;;;;;87.08;25.02;;;;;;;0.32;92.31;101740.95;1600293;88;21038;-91
2021/01/05 04:22:38;;;;;;;80.28;25.40;;;;;;;0.19;93.25;101733.50;1626236;87;21251;-90
2021/01/05 04:25:06;;;;;;;73.10;25.62;;;;;;;0.37;92.43;101725.39;1626236;87;21181;-91
2021/01/05 04:27:32;;;;;;;67.55;22.42;;;;;;;0.47;92.55;101719.10;1626166;87;22344;-90
2021/01/05 04:29:58;;;;;;;66.53;21.85;;;;;;;0.33;91.77;101733.36;1626020;87;21041;-90
2021/01/05 04:32:24;;;;;;;64.45;23.18;;;;;;;0.31;91.22;101734.52;1626144;87;21035;-90
2021/01/05 04:34:51;;;;;;;69.22;22.40;;;;;;;0.58;90.64;101739.99;1626121;86;21753;-90
2021/01/05 04:37:17;;;;;;;71.33;23.55;;;;;;;0.54;89.93;101740.83;1627830;86;21187;-89
2021/01/05 04:39:43;;;;;;;81.35;24.85;;;;;;;0.53;90.65;101741.83;1637390;87;21240;-91
2021/01/05 04:42:26;;;;;;;79.65;28.10;;;;;;;0.19;92.11;101740.62;1637203;87;21228;-90
2021/01/05 04:45:00;;;;;;;79.05;28.23;;;;;;;0.33;91.56;101745.29;1637019;86;21244;-90
2021/01/05 04:47:56;;;;;;;85.50;26.20;;;;;;;0.34;91.62;101744.78;1634206;87;21105;-90
2021/01/05 04:50:41;;;;;;;61.98;22.65;;;;;;;0.31;91.76;101737.16;1590483;89;21210;-90
2021/01/05 04:53:21;;;;;;;71.12;24.32;;;;;;;0.54;91.14;101733.38;1590163;90;21254;-91
2021/01/05 04:55:56;;;;;;;66.65;22.73;;;;;;;0.45;90.39;101730.71;1589828;90;21660;-91
2021/01/05 04:58:50;;;;;;;68.62;24.37;;;;;;;0.38;91.42;101728.41;1590985;89;21147;-91
2021/01/05 05:01:26;;;;;;;71.12;24.40;;;;;;;0.57;90.44;101729.89;1590708;90;21184;-90
2021/01/05 05:04:21;;;;;;;82.45;26.73;;;;;;;0.41;91.24;101727.22;1590874;90;21612;-90
2021/01/05 05:06:58;;;;;;;76.72;25.25;;;;;;;0.36;91.73;101729.05;1590845;90;21679;-90
2021/01/05 05:09:36;;;;;;;60.38;22.30;;;;;;;0.26;92.29;101733.66;1572712;91;21617;-90
2021/01/05 05:12:36;;;;;;;62.25;21.07;;;;;;;0.47;91.01;101742.97;1583409;88;21105;-91
2021/01/05 05:15:28;;;;;;;68.22;22.27;;;;;;;0.58;90.15;101736.02;1604128;89;21132;-90
2021/01/05 05:18:30;;;;;;;57.23;19.07;;;;;;;0.56;90.26;101746.80;1604569;89;21613;-90
2021/01/05 05:21:31;;;;;;;67.50;21.87;;;;;;;0.59;89.01;101746.95;1604265;89;21441;-91
2021/01/05 05:24:29;;;;;;;59.60;19.62;;;;;;;0.54;88.81;101753.27;1602885;89;21176;-90
2021/01/05 05:27:03;;;;;;;57.85;21.40;;;;;;;0.41;89.35;101765.66;1513963;92;21235;-90
2021/01/05 05:29:46;;;;;;;64.07;22.13;;;;;;;0.40;89.94;101759.53;1535033;92;21277;-89
2021/01/05 05:32:26;;;;;;;64.10;22.60;;;;;;;0.43;89.67;101759.20;1541301;92;21199;-91
2021/01/05 05:35:00;;;;;;;61.13;22.73;;;;;;;0.45;89.69;101765.19;1536801;93;22039;-91
2021/01/05 05:37:58;;;;;;;69.75;22.85;;;;;;;0.38;90.01;101754.91;1540297;92;21235;-91
2021/01/05 05:40:47;;;;;;;64.87;22.27;;;;;;;0.27;90.12;101761.85;1549212;92;21541;-90
2021/01/05 05:43:39;;;;;;;72.75;23.22;;;;;;;0.35;89.57;101785.70;1549851;92;21258;-90
2021/01/05 05:46:16;;;;;;;80.70;23.70;;;;;;;0.56;88.49;101763.19;1499489;94;21408;-91
2021/01/05 05:49:02;;;;;;;76.25;23.73;;;;;;;0.51;89.52;101769.00;1510794;93;21976;-91
2021/01/05 05:51:45;;;;;;;66.95;21.60;;;;;;;0.57;88.75;101768.34;1510068;94;21261;-90
2021/01/05 05:54:21;;;;;;;67.92;22.20;;;;;;;0.64;88.61;101783.09;1509897;94;21254;-91
2021/01/05 05:57:23;;;;;;;57.05;18.60;;;;;;;0.69;88.81;101786.09;1466276;96;21302;-90
2021/01/05 05:59:54;;;;;;;52.13;20.05;;;;;;;0.55;89.32;101778.78;1466398;96;21490;-90
2021/01/05 06:02:23;;;;;;;55.43;20.00;;;;;;;0.45;89.39;101784.25;1466694;97;21263;-90
2021/01/05 06:04:52;;;;;;;53.30;18.40;;;;;;;0.45;90.17;101786.90;1466275;96;21655;-90
2021/01/05 06:07:18;;;;;;;53.02;19.82;;;;;;;0.56;90.05;101773.33;1445310;97;21211;-90
2021/01/05 06:09:44;;;;;;;54.35;19.65;;;;;;;0.71;89.28;101792.54;1466306;97;21220;-90
2021/01/05 06:12:10;;;;;;;52.90;18.52;;;;;;;0.72;89.39;101784.94;1466318;97;21017;-90
2021/01/05 06:14:35;;;;;;;53.35;19.60;;;;;;;0.92;88.42;101785.44;1463133;97;21281;-89
2021/01/05 06:17:01;;;;;;;52.53;19.73;;;;;;;0.78;88.80;101781.61;1466036;97;21715;-89
2021/01/05 06:19:27;;;;;;;48.45;18.60;;;;;;;0.81;88.57;101787.41;1466399;97;21100;-89
2021/01/05 06:21:53;;;;;;;62.93;20.08;;;;;;;0.90;88.55;101775.80;1474767;94;21056;-91
2021/01/05 06:24:19;;;;;;;67.42;22.50;;;;;;;0.90;88.68;101785.59;1523013;93;21110;-89
2021/01/05 06:26:45;;;;;;;68.15;22.70;;;;;;;0.82;89.12;101775.80;1523906;94;21972;-91
2021/01/05 06:29:11;;;;;;;72.92;23.40;;;;;;;0.75;88.97;101773.98;1559496;90;20974;-90
2021/01/05 06:31:36;;;;;;;76.07;25.45;;;;;;;0.85;88.44;101778.14;1575597;91;20966;-91
2021/01/05 06:34:03;;;;;;;76.80;25.85;;;;;;;0.82;88.65;101763.85;1555379;91;21198;-90
2021/01/05 06:36:28;;;;;;;83.82;25.77;;;;;;;0.71;89.08;101754.08;1575624;91;21276;-90
2021/01/05 06:38:54;;;;;;;74.45;24.47;;;;;;;0.79;88.99;101764.69;1575494;90;21704;-89
2021/01/05 06:41:20;;;;;;;80.85;26.02;;;;;;;0.80;88.94;101754.43;1575530;91;21022;-93
2021/01/05 06:43:46;;;;;;;84.67;26.30;;;;;;;0.85;88.45;101760.90;1576523;90;21231;-90
2021/01/05 06:46:12;;;;;;;84.05;26.10;;;;;;;0.83;88.38;101741.66;1576598;90;21679;-90
2021/01/05 06:48:38;;;;;;;76.35;24.72;;;;;;;0.82;88.55;101742.63;1575664;90;21652;-91
2021/01/05 06:51:05;;;;;;;70.15;24.20;;;;;;;1.01;88.38;101749.42;1575679;90;21276;-91
2021/01/05 06:53:34;;;;;;;70.78;22.65;;;;;;;1.02;88.22;101748.92;1643971;83;21214;-89
2021/01/05 06:55:59;;;;;;;72.17;24.00;;;;;;;1.01;88.11;101744.12;1684218;84;21638;-88
2021/01/05 06:58:25;;;;;;;72.90;22.07;;;;;;;0.90;87.91;101733.34;1705430;84;21019;-88
2021/01/05 07:00:53;;;;;;;80.53;25.50;;;;;;;0.80;88.60;101753.11;1705523;83;21033;-90
2021/01/05 07:03:19;;;;;;;73.85;23.40;;;;;;;0.84;88.86;101743.30;1705434;84;21149;-90
2021/01/05 07:05:45;;;;;;;65.60;22.35;;;;;;;1.11;87.55;101739.94;1705413;84;20907;-90
2021/01/05 07:08:11;;;;;;;67.67;21.70;;;;;;;1.04;88.15;101746.94;1705406;84;21555;-90
2021/01/05 07:10:36;;;;;;;69.42;22.90;;;;;;;1.19;87.48;101743.91;1705618;83;20970;-90
2021/01/05 07:13:02;;;;;;;68.78;22.00;;;;;;;1.13;87.90;101737.95;1705403;84;21036;-91
2021/01/05 07:15:28;;;;;;;66.82;22.98;;;;;;;1.05;88.33;101736.64;1705326;84;21101;-90
2021/01/05 07:17:54;;;;;;;69.92;23.12;;;;;;;1.12;88.41;101736.31;1705354;84;20952;-89
2021/01/05 07:20:20;;;;;;;62.23;22.40;;;;;;;1.13;88.60;101730.81;1705387;84;20955;-90
2021/01/05 07:22:46;;;;;;;73.33;21.77;;;;;;;1.24;87.59;101719.02;1705377;84;21157;-90
2021/01/05 07:25:14;;;;;;;64.37;22.13;;;;;;;1.32;86.94;101716.34;1705491;84;21069;-91
2021/01/05 07:27:40;;;;;;;64.65;21.23;;;;;;;1.02;88.06;101719.73;1705266;83;21932;-89
2021/01/05 07:30:08;;;;;;;63.80;21.35;;;;;;;1.11;87.79;101704.93;1705262;84;21359;-90
2021/01/05 07:32:34;;;;;;;56.40;18.50;;;;;;;1.04;88.33;101708.45;1705327;83;21562;-90
2021/01/05 07:35:00;;;;;;;49.40;16.48;;;;;;;1.08;87.47;101711.08;1705407;83;21161;-90
2021/01/05 07:37:30;;;;;;;40.55;13.60;;;;;;;1.28;87.67;101716.34;1705425;83;20954;-90
2021/01/05 07:39:57;;;;;;;32.85;12.13;;;;;;;1.38;86.64;101711.33;1706012;83;21145;-90
2021/01/05 07:42:30;;;;;;;39.75;13.70;;;;;;;1.49;86.39;101706.47;1705183;83;20994;-90
2021/01/05 07:45:00;;;;;;;48.73;15.23;;;;;;;1.43;86.69;101703.68;1705554;83;21502;-92
2021/01/05 07:47:31;;;;;;;49.03;17.52;;;;;;;1.29;87.13;101715.33;1705297;83;21242;-91
2021/01/05 07:49:57;;;;;;;41.00;14.13;;;;;;;1.42;86.96;101709.50;1685169;84;21148;-91
2021/01/05 07:52:40;;;;;;;28.90;10.48;;;;;;;1.23;87.29;101704.07;1705567;83;21213;-89
2021/01/05 07:55:19;;;;;;;34.35;11.85;;;;;;;1.37;86.11;101702.53;1705299;84;21614;-91
2021/01/05 07:57:46;;;;;;;34.80;11.00;;;;;;;1.22;87.14;101693.13;1705283;84;21054;-91
2021/01/05 08:00:16;;;;;;;32.17;11.00;;;;;;;1.36;86.89;101694.25;1705359;83;21105;-90
2021/01/05 08:02:43;;;;;;;30.52;11.73;;;;;;;1.72;85.04;101693.25;1651876;86;21440;-90
2021/01/05 08:05:18;;;;;;;34.70;12.43;;;;;;;1.68;86.01;101696.45;1651590;86;21219;-91
2021/01/05 08:07:45;;;;;;;37.78;10.15;;;;;;;1.60;86.48;101695.97;1651671;86;21216;-91
2021/01/05 08:10:28;;;;;;;32.80;11.53;;;;;;;1.38;85.75;101688.75;1651804;86;21224;-90
2021/01/05 08:12:54;;;;;;;39.85;13.85;;;;;;;1.41;85.19;101685.75;1652025;85;21226;-92
2021/01/05 08:15:24;;;;;;;35.83;13.25;;;;;;;1.51;85.46;101705.80;1651859;86;21538;-87
2021/01/05 08:17:52;;;;;;;36.17;12.45;;;;;;;1.66;85.66;101691.30;1651487;86;22104;-86
2021/01/05 08:20:21;;;;;;;35.00;13.25;;;;;;;1.61;85.28;101694.96;1651774;86;21695;-87
2021/01/05 08:22:47;;;;;;;36.55;12.00;;;;;;;1.75;84.88;101698.22;1651637;86;21566;-87
2021/01/05 08:25:15;;;;;;;32.73;13.03;;;;;;;1.80;84.79;101684.42;1651740;86;20990;-87
2021/01/05 08:27:47;;;;;;;34.63;13.32;;;;;;;1.76;84.09;101680.44;1651578;86;21657;-87
2021/01/05 08:30:16;;;;;;;33.53;12.15;;;;;;;1.96;83.72;101675.00;1651635;86;21231;-87
2021/01/05 08:32:42;;;;;;;36.93;13.95;;;;;;;2.23;83.03;101669.65;1597720;88;21208;-88
2021/01/05 08:35:09;;;;;;;40.55;14.33;;;;;;;2.13;83.12;101672.24;1598032;89;20994;-87
2021/01/05 08:37:39;;;;;;;40.55;13.72;;;;;;;1.97;84.07;101667.84;1597964;89;21538;-86
2021/01/05 08:40:14;;;;;;;45.90;15.18;;;;;;;2.02;83.58;101661.51;1598982;89;21188;-88
2021/01/05 08:42:40;;;;;;;39.80;15.40;;;;;;;1.88;84.56;101660.42;1597742;88;21630;-87
2021/01/05 08:45:08;;;;;;;44.90;14.78;;;;;;;2.10;84.33;101652.16;1597971;89;20983;-86
2021/01/05 08:47:34;;;;;;;40.98;13.70;;;;;;;2.15;83.80;101643.66;1598044;89;21686;-87
2021/01/05 08:50:00;;;;;;;35.52;13.35;;;;;;;2.12;83.46;101646.16;1598146;89;21180;-86
2021/01/05 08:52:26;;;;;;;35.83;13.38;;;;;;;1.94;82.93;101641.62;1598061;89;21205;-87
2021/01/05 08:54:52;;;;;;;37.42;13.75;;;;;;;2.19;82.66;101636.97;1598059;89;22037;-87
2021/01/05 08:57:18;;;;;;;40.05;14.75;;;;;;;2.03;83.12;101644.06;1597798;89;21149;-88
2021/01/05 08:59:47;;;;;;;44.83;15.72;;;;;;;2.40;81.81;101627.80;1598013;89;21074;-87
2021/01/05 09:02:13;;;;;;;41.63;13.20;;;;;;;2.36;81.97;101625.69;1583650;90;21140;-87
2021/01/05 09:04:39;;;;;;;42.48;15.13;;;;;;;2.08;81.98;101621.42;1629939;87;21047;-87
2021/01/05 09:07:05;;;;;;;36.55;13.45;;;;;;;2.40;81.43;101618.99;1640841;86;21136;-87
2021/01/05 09:09:31;;;;;;;39.03;13.30;;;;;;;2.33;81.87;101620.73;1664990;86;21096;-87
2021/01/05 09:11:59;;;;;;;40.15;13.53;;;;;;;2.12;81.62;101622.23;1681133;85;21015;-87
2021/01/05 09:14:26;;;;;;;43.63;15.63;;;;;;;2.37;81.42;101604.72;1681249;85;21140;-86
2021/01/05 09:16:57;;;;;;;53.50;17.60;;;;;;;2.13;83.17;101611.91;1681421;85;21121;-86
2021/01/05 09:19:25;;;;;;;58.95;19.12;;;;;;;2.46;82.22;101612.44;1681425;85;21879;-87
2021/01/05 09:21:51;;;;;;;60.78;19.40;;;;;;;2.54;81.52;101600.08;1681311;85;21168;-87
2021/01/05 09:24:17;;;;;;;41.30;13.53;;;;;;;2.18;82.21;101600.75;1681345;84;21171;-87
2021/01/05 09:26:44;;;;;;;37.25;13.55;;;;;;;2.18;81.58;101610.06;1681371;85;21272;-87
2021/01/05 09:29:12;;;;;;;33.53;12.03;;;;;;;2.32;80.94;101603.11;1681447;85;21199;-87
2021/01/05 09:31:44;;;;;;;35.43;12.80;;;;;;;2.50;79.55;101607.61;1681372;85;21896;-87
2021/01/05 09:34:12;;;;;;;33.02;11.45;;;;;;;2.61;80.03;101598.33;1686327;84;21676;-87
2021/01/05 09:36:38;;;;;;;31.50;11.63;;;;;;;2.68;79.67;101594.77;1662745;85;21168;-87
2021/01/05 09:39:08;;;;;;;32.40;12.50;;;;;;;2.62;80.01;101586.19;1619334;87;21373;-86
2021/01/05 09:41:40;;;;;;;31.17;12.15;;;;;;;2.84;81.08;101592.94;1634431;87;21225;-86
2021/01/05 09:44:07;;;;;;;34.55;12.20;;;;;;;3.04;80.36;101586.03;1531711;93;21193;-86
2021/01/05 09:46:34;;;;;;;34.70;12.88;;;;;;;3.03;80.02;101587.54;1517465;93;21228;-86
2021/01/05 09:49:01;;;;;;;43.98;14.75;;;;;;;3.09;80.06;101584.98;1523217;93;21233;-87
2021/01/05 09:51:30;;;;;;;40.52;14.10;;;;;;;2.78;79.88;101587.84;1523326;92;21263;-87
2021/01/05 09:53:57;;;;;;;37.30;11.97;;;;;;;2.75;79.85;101584.21;1523395;94;21759;-87
2021/01/05 09:56:24;;;;;;;35.20;13.58;;;;;;;2.56;79.67;101566.97;1523626;93;21518;-86
2021/01/05 09:58:51;;;;;;;31.27;11.22;;;;;;;3.02;79.71;101570.73;1535512;92;21355;-88
2021/01/05 10:01:30;;;;;;;31.15;11.38;;;;;;;3.10;78.00;101561.83;1554291;91;21289;-86
2021/01/05 10:03:56;;;;;;;23.12;9.55;;;;;;;3.21;78.11;101567.17;1554476;91;21252;-87
2021/01/05 10:06:34;;;;;;;24.02;10.28;;;;;;;3.61;77.72;101561.27;1554520;91;21676;-87
2021/01/05 10:09:09;;;;;;;34.75;12.60;;;;;;;3.37;77.30;101563.78;1553108;91;21961;-87
2021/01/05 10:11:45;;;;;;;38.60;13.32;;;;;;;3.01;78.08;101559.78;1550482;92;21254;-85
2021/01/05 10:14:14;;;;;;;34.00;12.80;;;;;;;3.17;77.94;101551.56;1550568;92;21247;-85
2021/01/05 10:16:40;;;;;;;30.17;11.97;;;;;;;3.09;78.02;101544.19;1550417;92;21189;-85
2021/01/05 10:19:06;;;;;;;41.90;13.13;;;;;;;3.02;78.85;101539.30;1550451;92;21068;-85
2021/01/05 10:21:40;;;;;;;38.05;11.88;;;;;;;3.36;77.57;101540.83;1530743;92;21220;-85
2021/01/05 10:24:07;;;;;;;;;;;;;;;3.22;77.56;101544.87;1501453;95;21147;-86
2021/01/05 10:26:33;;;;;;;39.67;14.13;;;;;;;2.84;78.63;101555.16;1499219;95;20338;-85
2021/01/05 10:29:00;;;;;;;33.00;13.18;;;;;;;3.11;78.41;101533.67;1499211;95;21291;-86
2021/01/05 10:31:26;;;;;;;41.05;12.98;;;;;;;3.32;78.25;101520.06;1513044;93;21382;-86
2021/01/05 10:33:52;;;;;;;33.35;12.35;;;;;;;3.12;78.59;101521.20;1518041;94;21206;-86
2021/01/05 10:36:22;;;;;;;26.30;9.33;;;;;;;3.50;78.04;101520.97;1517990;94;21118;-85
2021/01/05 10:38:48;;;;;;;26.55;9.65;;;;;;;2.96;78.46;101528.37;1518918;93;21225;-85
2021/01/05 10:41:16;;;;;;;29.63;10.03;;;;;;;3.58;76.31;101512.34;1570526;89;21255;-86
2021/01/05 10:43:44;;;;;;;28.32;11.05;;;;;;;3.42;76.36;101509.95;1600491;89;21208;-86
2021/01/05 10:46:10;;;;;;;33.70;10.70;;;;;;;3.48;76.47;101503.03;1600685;89;21219;-85
2021/01/05 10:48:36;;;;;;;40.50;12.45;;;;;;;3.17;77.71;101495.63;1600529;89;21235;-86
2021/01/05 10:51:04;;;;;;;35.20;11.70;;;;;;;2.95;78.72;101497.96;1600683;89;21018;-87
2021/01/05 10:53:31;;;;;;;39.98;13.03;;;;;;;2.64;79.58;101499.00;1600611;89;21167;-87
2021/01/05 10:55:58;;;;;;;34.95;12.30;;;;;;;2.81;79.71;101494.81;1600633;89;21120;-87
2021/01/05 10:58:23;;;;;;;35.70;12.05;;;;;;;3.13;79.08;101496.22;1600613;89;21356;-86
2021/01/05 11:00:50;;;;;;;40.65;12.20;;;;;;;3.25;78.55;101485.38;1600652;89;21070;-86
2021/01/05 11:03:16;;;;;;;37.98;12.55;;;;;;;3.27;78.29;101485.20;1600569;89;21215;-86
2021/01/05 11:05:42;;;;;;;34.80;12.07;;;;;;;2.87;79.47;101483.42;1600626;89;21216;-87
2021/01/05 11:08:08;;;;;;;40.03;10.78;;;;;;;2.91;78.97;101492.19;1600630;89;21704;-87
2021/01/05 11:10:34;;;;;;;35.75;11.50;;;;;;;2.82;78.72;101488.47;1600605;89;21972;-87
2021/01/05 11:13:04;;;;;;;29.20;11.38;;;;;;;2.73;79.73;101487.75;1600525;89;21259;-87
2021/01/05 11:15:29;;;;;;;47.35;11.35;;;;;;;2.89;79.12;101488.88;1600783;89;21183;-87
2021/01/05 11:17:55;;;;;;;28.27;7.83;;;;;;;2.60;80.37;101476.45;1559315;89;21088;-87
2021/01/05 11:20:21;;;;;;;42.25;11.83;;;;;;;2.46;80.78;101491.91;1630851;84;21710;-87
2021/01/05 11:22:49;;;;;;;40.40;12.58;;;;;;;2.79;80.70;101479.02;1697440;84;21218;-87
2021/01/05 11:25:18;;;;;;;46.98;10.30;;;;;;;2.94;80.14;101468.34;1700597;83;21141;-87
2021/01/05 11:27:44;;;;;;;50.38;15.00;;;;;;;2.55;80.66;101471.36;1697388;83;21186;-86
2021/01/05 11:30:17;;;;;;;45.48;13.75;;;;;;;2.79;81.23;101473.70;1697489;84;21184;-86
2021/01/05 11:32:43;;;;;;;39.95;11.15;;;;;;;2.82;80.84;101474.66;1695661;84;21643;-86
2021/01/05 11:35:11;;;;;;;33.85;11.78;;;;;;;2.56;80.40;101475.17;1697431;84;21254;-87
2021/01/05 11:37:39;;;;;;;50.38;13.18;;;;;;;2.68;80.54;101464.89;1697225;84;21643;-86
2021/01/05 11:40:07;;;;;;;40.75;11.80;;;;;;;2.59;80.35;101475.28;1681470;84;21137;-86
2021/01/05 11:42:33;;;;;;;41.50;12.25;;;;;;;2.82;79.54;101469.84;1705449;83;21137;-86